sensor_id;sensor_type;location;lat;lon;timestamp;pressure;altitude;pressure_sealevel;temperature;humidity
23643;BME280;11998;55.788;37.572;2023-02-12T00:00:17;97654.56;;;0.45;100.00
23643;BME280;11998;55.788;37.572;2023-02-12T00:01:18;97657.25;;;0.34;100.00
23643;BME280;11998;55.788;37.572;2023-02-12T00:02:19;97661.56;;;0.37;100.00
23643;BME280;11998;55.788;37.572;2023-02-12T00:03:20;97667.81;;;0.22;100.00
23643;BME280;11998;55.788;37.572;2023-02-12T00:04:20;97674.69;;;0.29;100.00
23643;BME280;11998;55.788;37.572;2023-02-12T00:05:21;97666.88;;;0.31;100.00
23643;BME280;11998;55.788;37.572;2023-02-12T00:06:22;97679.06;;;0.25;100.00
23643;BME280;11998;55.788;37.572;2023-02-12T00:07:23;97655.59;;;0.30;100.00
23643;BME280;11998;55.788;37.572;2023-02-12T00:08:23;97656.53;;;0.21;100.00
23643;BME280;11998;55.788;37.572;2023-02-12T00:09:24;97669.66;;;0.14;100.00
23643;BME280;11998;55.788;37.572;2023-02-12T00:10:24;97660.13;;;0.08;100.00
23643;BME280;11998;55.788;37.572;2023-02-12T00:11:27;97675.84;;;-0.01;100.00
23643;BME280;11998;55.788;37.572;2023-02-12T00:12:28;97682.75;;;0.03;100.00
23643;BME280;11998;55.788;37.572;2023-02-12T00:13:30;97655.91;;;0.01;100.00
23643;BME280;11998;55.788;37.572;2023-02-12T00:14:30;97692.38;;;-0.05;100.00
23643;BME280;11998;55.788;37.572;2023-02-12T00:15:31;97698.50;;;-0.12;100.00
23643;BME280;11998;55.788;37.572;2023-02-12T00:16:33;97688.94;;;-0.13;100.00
23643;BME280;11998;55.788;37.572;2023-02-12T00:17:34;97675.97;;;-0.16;100.00
23643;BME280;11998;55.788;37.572;2023-02-12T00:18:34;97706.31;;;-0.15;100.00
23643;BME280;11998;55.788;37.572;2023-02-12T00:19:35;97700.22;;;-0.13;100.00
23643;BME280;11998;55.788;37.572;2023-02-12T00:20:36;97702.84;;;-0.14;100.00
23643;BME280;11998;55.788;37.572;2023-02-12T00:21:37;97707.16;;;-0.10;100.00
23643;BME280;11998;55.788;37.572;2023-02-12T00:22:37;97706.31;;;-0.15;100.00
23643;BME280;11998;55.788;37.572;2023-02-12T00:23:39;97700.22;;;-0.14;100.00
23643;BME280;11998;55.788;37.572;2023-02-12T00:24:40;97707.25;;;-0.22;100.00
23643;BME280;11998;55.788;37.572;2023-02-12T00:25:41;97726.38;;;-0.30;100.00
23643;BME280;11998;55.788;37.572;2023-02-12T00:26:41;97712.63;;;-0.47;100.00
23643;BME280;11998;55.788;37.572;2023-02-12T00:27:42;97728.25;;;-0.48;100.00
23643;BME280;11998;55.788;37.572;2023-02-12T00:28:43;97709.16;;;-0.44;100.00
23643;BME280;11998;55.788;37.572;2023-02-12T00:29:43;97729.94;;;-0.43;100.00
23643;BME280;11998;55.788;37.572;2023-02-12T00:30:44;97734.34;;;-0.49;100.00
23643;BME280;11998;55.788;37.572;2023-02-12T00:31:44;97733.41;;;-0.44;100.00
23643;BME280;11998;55.788;37.572;2023-02-12T00:32:45;97729.13;;;-0.54;100.00
23643;BME280;11998;55.788;37.572;2023-02-12T00:33:46;97736.13;;;-0.64;100.00
23643;BME280;11998;55.788;37.572;2023-02-12T00:34:46;97714.50;;;-0.67;100.00
23643;BME280;11998;55.788;37.572;2023-02-12T00:35:55;97741.41;;;-0.73;100.00
23643;BME280;11998;55.788;37.572;2023-02-12T00:36:55;97723.22;;;-0.80;100.00
23643;BME280;11998;55.788;37.572;2023-02-12T00:37:56;97740.56;;;-0.79;100.00
23643;BME280;11998;55.788;37.572;2023-02-12T00:38:57;97761.31;;;-0.76;100.00
23643;BME280;11998;55.788;37.572;2023-02-12T00:39:58;97752.66;;;-0.78;100.00
23643;BME280;11998;55.788;37.572;2023-02-12T00:40:59;97732.78;;;-0.82;100.00
23643;BME280;11998;55.788;37.572;2023-02-12T00:42:00;97778.69;;;-0.84;100.00
23643;BME280;11998;55.788;37.572;2023-02-12T00:43:00;97790.81;;;-0.90;100.00
23643;BME280;11998;55.788;37.572;2023-02-12T00:44:01;97771.78;;;-0.85;100.00
23643;BME280;11998;55.788;37.572;2023-02-12T00:45:01;97789.09;;;-0.84;100.00
23643;BME280;11998;55.788;37.572;2023-02-12T00:46:02;97799.44;;;-0.75;100.00
23643;BME280;11998;55.788;37.572;2023-02-12T00:47:04;97797.75;;;-0.85;100.00
23643;BME280;11998;55.788;37.572;2023-02-12T00:48:05;97795.16;;;-0.85;100.00
23643;BME280;11998;55.788;37.572;2023-02-12T00:49:05;97785.63;;;-0.90;100.00
23643;BME280;11998;55.788;37.572;2023-02-12T00:50:06;97800.38;;;-0.85;100.00
23643;BME280;11998;55.788;37.572;2023-02-12T00:51:07;97794.28;;;-0.84;100.00
23643;BME280;11998;55.788;37.572;2023-02-12T00:52:08;97811.63;;;-0.93;100.00
23643;BME280;11998;55.788;37.572;2023-02-12T00:53:08;97792.59;;;-0.95;100.00
23643;BME280;11998;55.788;37.572;2023-02-12T00:54:09;97792.56;;;-0.92;100.00
23643;BME280;11998;55.788;37.572;2023-02-12T00:55:09;97694.78;;;-1.06;100.00
23643;BME280;11998;55.788;37.572;2023-02-12T00:56:10;97809.94;;;-1.12;100.00
23643;BME280;11998;55.788;37.572;2023-02-12T00:57:11;97811.69;;;-1.08;100.00
23643;BME280;11998;55.788;37.572;2023-02-12T00:58:11;97815.13;;;-1.12;100.00
23643;BME280;11998;55.788;37.572;2023-02-12T00:59:12;97822.06;;;-1.05;100.00
23643;BME280;11998;55.788;37.572;2023-02-12T01:00:13;97809.09;;;-1.08;100.00
23643;BME280;11998;55.788;37.572;2023-02-12T01:01:14;97823.81;;;-1.10;100.00
23643;BME280;11998;55.788;37.572;2023-02-12T01:02:15;97828.13;;;-1.12;100.00
23643;BME280;11998;55.788;37.572;2023-02-12T01:03:15;97828.16;;;-1.10;100.00
23643;BME280;11998;55.788;37.572;2023-02-12T01:04:16;97829.00;;;-1.07;100.00
23643;BME280;11998;55.788;37.572;2023-02-12T01:05:17;97822.09;;;-1.14;100.00
23643;BME280;11998;55.788;37.572;2023-02-12T01:06:18;97822.97;;;-1.10;100.00
23643;BME280;11998;55.788;37.572;2023-02-12T01:07:19;97799.56;;;-1.12;100.00
23643;BME280;11998;55.788;37.572;2023-02-12T01:08:20;97807.34;;;-1.13;100.00
23643;BME280;11998;55.788;37.572;2023-02-12T01:09:20;97846.34;;;-1.18;100.00
23643;BME280;11998;55.788;37.572;2023-02-12T01:10:21;97856.75;;;-1.21;100.00
23643;BME280;11998;55.788;37.572;2023-02-12T01:11:21;97849.81;;;-1.19;100.00
23643;BME280;11998;55.788;37.572;2023-02-12T01:12:22;97859.34;;;-1.35;100.00
23643;BME280;11998;55.788;37.572;2023-02-12T01:13:23;97872.31;;;-1.21;100.00
23643;BME280;11998;55.788;37.572;2023-02-12T01:14:24;97859.34;;;-1.20;100.00
23643;BME280;11998;55.788;37.572;2023-02-12T01:15:25;97848.09;;;-1.32;100.00
23643;BME280;11998;55.788;37.572;2023-02-12T01:16:32;97873.19;;;-1.27;100.00
23643;BME280;11998;55.788;37.572;2023-02-12T01:17:36;97876.63;;;-1.15;100.00
23643;BME280;11998;55.788;37.572;2023-02-12T01:18:36;97883.56;;;-1.19;100.00
23643;BME280;11998;55.788;37.572;2023-02-12T01:19:37;97855.88;;;-1.29;100.00
23643;BME280;11998;55.788;37.572;2023-02-12T01:20:38;97887.03;;;-1.37;100.00
23643;BME280;11998;55.788;37.572;2023-02-12T01:21:38;97877.53;;;-1.33;100.00
23643;BME280;11998;55.788;37.572;2023-02-12T01:22:39;97880.13;;;-1.32;100.00
23643;BME280;11998;55.788;37.572;2023-02-12T01:23:40;97886.16;;;-1.37;100.00
23643;BME280;11998;55.788;37.572;2023-02-12T01:24:40;97867.16;;;-1.36;100.00
23643;BME280;11998;55.788;37.572;2023-02-12T01:25:41;97906.06;;;-1.38;100.00
23643;BME280;11998;55.788;37.572;2023-02-12T01:26:41;97899.16;;;-1.37;100.00
23643;BME280;11998;55.788;37.572;2023-02-12T01:27:42;97895.69;;;-1.39;100.00
23643;BME280;11998;55.788;37.572;2023-02-12T01:28:44;97891.34;;;-1.37;100.00
23643;BME280;11998;55.788;37.572;2023-02-12T01:29:45;97882.72;;;-1.33;100.00
23643;BME280;11998;55.788;37.572;2023-02-12T01:30:45;97900.88;;;-1.39;100.00
23643;BME280;11998;55.788;37.572;2023-02-12T01:31:46;97917.34;;;-1.31;100.00
23643;BME280;11998;55.788;37.572;2023-02-12T01:32:46;97906.97;;;-1.33;100.00
23643;BME280;11998;55.788;37.572;2023-02-12T01:33:51;97921.66;;;-1.30;100.00
23643;BME280;11998;55.788;37.572;2023-02-12T01:34:52;97931.19;;;-1.35;100.00
23643;BME280;11998;55.788;37.572;2023-02-12T01:35:52;97911.28;;;-1.27;100.00
23643;BME280;11998;55.788;37.572;2023-02-12T01:36:52;97921.66;;;-1.27;100.00
23643;BME280;11998;55.788;37.572;2023-02-12T01:37:53;97908.66;;;-1.38;100.00
23643;BME280;11998;55.788;37.572;2023-02-12T01:38:54;97941.59;;;-1.35;100.00
23643;BME280;11998;55.788;37.572;2023-02-12T01:39:55;97941.56;;;-1.38;100.00
23643;BME280;11998;55.788;37.572;2023-02-12T01:41:09;97938.97;;;-1.31;100.00
23643;BME280;11998;55.788;37.572;2023-02-12T01:42:14;97946.78;;;-1.35;100.00
23643;BME280;11998;55.788;37.572;2023-02-12T01:43:15;97903.50;;;-1.36;100.00
23643;BME280;11998;55.788;37.572;2023-02-12T01:44:19;97947.63;;;-1.38;100.00
23643;BME280;11998;55.788;37.572;2023-02-12T01:46:36;97951.97;;;-1.35;100.00
23643;BME280;11998;55.788;37.572;2023-02-12T01:47:37;97878.38;;;-1.40;100.00
23643;BME280;11998;55.788;37.572;2023-02-12T01:48:43;97954.53;;;-1.43;100.00
23643;BME280;11998;55.788;37.572;2023-02-12T01:49:46;97942.44;;;-1.47;100.00
23643;BME280;11998;55.788;37.572;2023-02-12T01:50:48;97964.91;;;-1.49;100.00
23643;BME280;11998;55.788;37.572;2023-02-12T01:51:53;97943.31;;;-1.46;100.00
23643;BME280;11998;55.788;37.572;2023-02-12T01:52:56;97968.41;;;-1.47;100.00
23643;BME280;11998;55.788;37.572;2023-02-12T01:54:02;97972.72;;;-1.46;100.00
23643;BME280;11998;55.788;37.572;2023-02-12T01:55:07;97973.56;;;-1.61;100.00
23643;BME280;11998;55.788;37.572;2023-02-12T01:56:09;97976.16;;;-1.61;100.00
23643;BME280;11998;55.788;37.572;2023-02-12T01:57:11;97936.38;;;-1.60;100.00
23643;BME280;11998;55.788;37.572;2023-02-12T01:58:14;97977.03;;;-1.56;100.00
23643;BME280;11998;55.788;37.572;2023-02-12T01:59:15;97993.47;;;-1.54;100.00
23643;BME280;11998;55.788;37.572;2023-02-12T02:00:23;97996.97;;;-1.49;100.00
23643;BME280;11998;55.788;37.572;2023-02-12T02:01:27;97995.19;;;-1.50;100.00
23643;BME280;11998;55.788;37.572;2023-02-12T02:02:30;97995.19;;;-1.53;100.00
23643;BME280;11998;55.788;37.572;2023-02-12T02:03:32;97979.63;;;-1.56;100.00
23643;BME280;11998;55.788;37.572;2023-02-12T02:04:47;97964.91;;;-1.57;100.00
23643;BME280;11998;55.788;37.572;2023-02-12T02:06:17;97967.50;;;-1.69;100.00
23643;BME280;11998;55.788;37.572;2023-02-12T02:07:19;98013.34;;;-1.68;100.00
23643;BME280;11998;55.788;37.572;2023-02-12T02:08:19;97983.06;;;-1.66;100.00
23643;BME280;11998;55.788;37.572;2023-02-12T02:09:20;97985.66;;;-1.69;100.00
23643;BME280;11998;55.788;37.572;2023-02-12T02:10:21;98012.47;;;-1.64;100.00
23643;BME280;11998;55.788;37.572;2023-02-12T02:11:22;98002.09;;;-1.70;100.00
23643;BME280;11998;55.788;37.572;2023-02-12T02:12:41;97997.75;;;-1.77;100.00
23643;BME280;11998;55.788;37.572;2023-02-12T02:14:00;98014.22;;;-1.66;100.00
23643;BME280;11998;55.788;37.572;2023-02-12T02:15:20;98015.94;;;-1.68;100.00
23643;BME280;11998;55.788;37.572;2023-02-12T02:16:25;98008.16;;;-1.69;100.00
23643;BME280;11998;55.788;37.572;2023-02-12T02:18:35;98031.50;;;-1.71;100.00
23643;BME280;11998;55.788;37.572;2023-02-12T02:21:17;98033.19;;;-1.76;100.00
23643;BME280;11998;55.788;37.572;2023-02-12T02:26:32;98071.34;;;-1.57;100.00
23643;BME280;11998;55.788;37.572;2023-02-12T02:30:47;98072.13;;;-1.74;100.00
23643;BME280;11998;55.788;37.572;2023-02-12T02:32:02;98036.69;;;-1.71;100.00
23643;BME280;11998;55.788;37.572;2023-02-12T02:34:39;98073.84;;;-1.75;100.00
23643;BME280;11998;55.788;37.572;2023-02-12T02:35:49;98077.34;;;-1.71;100.00
23643;BME280;11998;55.788;37.572;2023-02-12T02:39:27;98074.75;;;-1.73;100.00
23643;BME280;11998;55.788;37.572;2023-02-12T02:40:37;98050.53;;;-1.72;100.00
23643;BME280;11998;55.788;37.572;2023-02-12T02:42:15;98079.91;;;-1.79;100.00
23643;BME280;11998;55.788;37.572;2023-02-12T02:43:25;98109.31;;;-1.80;100.00
23643;BME280;11998;55.788;37.572;2023-02-12T02:44:27;98117.09;;;-1.75;100.00
23643;BME280;11998;55.788;37.572;2023-02-12T02:46:49;98106.72;;;-1.74;100.00
23643;BME280;11998;55.788;37.572;2023-02-12T02:49:06;98107.59;;;-1.78;100.00
23643;BME280;11998;55.788;37.572;2023-02-12T02:50:13;98112.75;;;-1.84;100.00
23643;BME280;11998;55.788;37.572;2023-02-12T02:51:36;98098.94;;;-1.77;100.00
23643;BME280;11998;55.788;37.572;2023-02-12T02:52:45;98113.56;;;-1.94;100.00
23643;BME280;11998;55.788;37.572;2023-02-12T02:53:51;98109.25;;;-1.95;100.00
23643;BME280;11998;55.788;37.572;2023-02-12T02:54:59;98140.38;;;-1.95;100.00
23643;BME280;11998;55.788;37.572;2023-02-12T02:56:06;98095.41;;;-1.88;100.00
23643;BME280;11998;55.788;37.572;2023-02-12T02:57:25;98132.59;;;-1.89;100.00
23643;BME280;11998;55.788;37.572;2023-02-12T02:58:43;98136.91;;;-1.94;100.00
23643;BME280;11998;55.788;37.572;2023-02-12T02:59:49;98114.44;;;-1.92;100.00
23643;BME280;11998;55.788;37.572;2023-02-12T03:02:00;98146.44;;;-1.89;100.00
23643;BME280;11998;55.788;37.572;2023-02-12T03:03:08;98137.78;;;-1.89;100.00
23643;BME280;11998;55.788;37.572;2023-02-12T03:04:19;98154.19;;;-1.96;100.00
23643;BME280;11998;55.788;37.572;2023-02-12T03:05:28;98157.59;;;-2.00;100.00
23643;BME280;11998;55.788;37.572;2023-02-12T03:06:52;98171.50;;;-1.95;100.00
23643;BME280;11998;55.788;37.572;2023-02-12T03:08:25;98153.34;;;-1.91;100.00
23643;BME280;11998;55.788;37.572;2023-02-12T03:09:35;98185.34;;;-1.90;100.00
23643;BME280;11998;55.788;37.572;2023-02-12T03:10:42;98156.78;;;-1.96;100.00
23643;BME280;11998;55.788;37.572;2023-02-12T03:11:44;98185.31;;;-1.96;100.00
23643;BME280;11998;55.788;37.572;2023-02-12T03:12:52;98185.28;;;-2.02;100.00
23643;BME280;11998;55.788;37.572;2023-02-12T03:14:03;98189.59;;;-2.00;100.00
23643;BME280;11998;55.788;37.572;2023-02-12T03:15:18;98181.00;;;-1.93;100.00
23643;BME280;11998;55.788;37.572;2023-02-12T03:16:27;98180.16;;;-1.90;100.00
23643;BME280;11998;55.788;37.572;2023-02-12T03:17:34;98195.72;;;-1.93;100.00
23643;BME280;11998;55.788;37.572;2023-02-12T03:18:40;98176.69;;;-1.92;100.00
23643;BME280;11998;55.788;37.572;2023-02-12T03:19:51;98204.38;;;-1.91;100.00
23643;BME280;11998;55.788;37.572;2023-02-12T03:21:01;98194.84;;;-1.92;100.00
23643;BME280;11998;55.788;37.572;2023-02-12T03:22:05;98206.94;;;-1.97;100.00
23643;BME280;11998;55.788;37.572;2023-02-12T03:23:13;98206.88;;;-2.05;100.00
23643;BME280;11998;55.788;37.572;2023-02-12T03:25:29;98225.91;;;-2.01;100.00
23643;BME280;11998;55.788;37.572;2023-02-12T03:26:57;98213.00;;;-1.95;100.00
23643;BME280;11998;55.788;37.572;2023-02-12T03:29:12;98213.00;;;-1.92;100.00
23643;BME280;11998;55.788;37.572;2023-02-12T03:30:13;98219.06;;;-1.95;100.00
23643;BME280;11998;55.788;37.572;2023-02-12T03:33:04;98201.69;;;-2.02;100.00
23643;BME280;11998;55.788;37.572;2023-02-12T03:35:44;98229.31;;;-2.10;100.00
23643;BME280;11998;55.788;37.572;2023-02-12T03:36:55;98243.94;;;-2.17;100.00
23643;BME280;11998;55.788;37.572;2023-02-12T03:39:36;98192.97;;;-2.15;100.00
23643;BME280;11998;55.788;37.572;2023-02-12T03:42:57;98228.38;;;-2.17;100.00
23643;BME280;11998;55.788;37.572;2023-02-12T03:44:48;98250.78;;;-2.25;100.00
23643;BME280;11998;55.788;37.572;2023-02-12T03:45:39;98218.88;;;-2.18;100.00
23643;BME280;11998;55.788;37.572;2023-02-12T03:48:22;98263.84;;;-2.17;100.00
23643;BME280;11998;55.788;37.572;2023-02-12T03:49:50;98239.63;;;-2.16;100.00
23643;BME280;11998;55.788;37.572;2023-02-12T03:51:56;98230.03;;;-2.28;100.00
23643;BME280;11998;55.788;37.572;2023-02-12T03:52:57;98262.72;;;-2.42;100.00
23643;BME280;11998;55.788;37.572;2023-02-12T03:54:00;98272.34;;;-2.32;100.00
23643;BME280;11998;55.788;37.572;2023-02-12T03:55:01;98262.00;;;-2.29;100.00
23643;BME280;11998;55.788;37.572;2023-02-12T03:56:11;98285.34;;;-2.29;100.00
23643;BME280;11998;55.788;37.572;2023-02-12T03:57:21;98265.41;;;-2.33;100.00
23643;BME280;11998;55.788;37.572;2023-02-12T03:58:26;98264.53;;;-2.35;100.00
23643;BME280;11998;55.788;37.572;2023-02-12T03:59:27;98274.84;;;-2.41;100.00
23643;BME280;11998;55.788;37.572;2023-02-12T04:00:29;98286.06;;;-2.42;100.00
23643;BME280;11998;55.788;37.572;2023-02-12T04:01:31;98280.09;;;-2.35;100.00
23643;BME280;11998;55.788;37.572;2023-02-12T04:02:32;98277.53;;;-2.33;100.00
23643;BME280;11998;55.788;37.572;2023-02-12T04:03:33;98218.75;;;-2.31;100.00
23643;BME280;11998;55.788;37.572;2023-02-12T04:04:35;98267.97;;;-2.36;100.00
23643;BME280;11998;55.788;37.572;2023-02-12T04:05:35;98278.34;;;-2.36;100.00
23643;BME280;11998;55.788;37.572;2023-02-12T04:06:36;98304.25;;;-2.36;100.00
23643;BME280;11998;55.788;37.572;2023-02-12T04:07:37;98261.03;;;-2.37;100.00
23643;BME280;11998;55.788;37.572;2023-02-12T04:08:37;98289.53;;;-2.42;100.00
23643;BME280;11998;55.788;37.572;2023-02-12T04:09:38;98281.84;;;-2.34;100.00
23643;BME280;11998;55.788;37.572;2023-02-12T04:13:23;98301.75;;;-2.30;100.00
23643;BME280;11998;55.788;37.572;2023-02-12T04:17:08;98301.75;;;-2.28;100.00
23643;BME280;11998;55.788;37.572;2023-02-12T04:18:21;98306.94;;;-2.30;100.00
23643;BME280;11998;55.788;37.572;2023-02-12T04:21:05;98320.72;;;-2.35;100.00
23643;BME280;11998;55.788;37.572;2023-02-12T04:22:32;98324.97;;;-2.39;100.00
23643;BME280;11998;55.788;37.572;2023-02-12T04:27:41;98356.78;;;-2.55;100.00
23643;BME280;11998;55.788;37.572;2023-02-12T04:28:56;98307.56;;;-2.52;100.00
23643;BME280;11998;55.788;37.572;2023-02-12T04:32:38;98355.84;;;-2.60;100.00
23643;BME280;11998;55.788;37.572;2023-02-12T04:33:54;98309.13;;;-2.67;100.00
23643;BME280;11998;55.788;37.572;2023-02-12T04:35:44;98341.97;;;-2.62;100.00
23643;BME280;11998;55.788;37.572;2023-02-12T04:36:26;98347.13;;;-2.67;100.00
23643;BME280;11998;55.788;37.572;2023-02-12T04:37:36;98355.78;;;-2.67;100.00
23643;BME280;11998;55.788;37.572;2023-02-12T04:38:42;98359.19;;;-2.69;100.00
23643;BME280;11998;55.788;37.572;2023-02-12T04:39:45;98360.13;;;-2.64;100.00
23643;BME280;11998;55.788;37.572;2023-02-12T04:40:47;98372.13;;;-2.71;100.00
23643;BME280;11998;55.788;37.572;2023-02-12T04:41:48;98373.09;;;-2.62;100.00
23643;BME280;11998;55.788;37.572;2023-02-12T04:42:50;98360.19;;;-2.59;100.00
23643;BME280;11998;55.788;37.572;2023-02-12T04:43:52;98376.53;;;-2.63;100.00
23643;BME280;11998;55.788;37.572;2023-02-12T04:44:52;98358.44;;;-2.60;100.00
23643;BME280;11998;55.788;37.572;2023-02-12T04:45:53;98363.50;;;-2.70;100.00
23643;BME280;11998;55.788;37.572;2023-02-12T04:46:53;98338.47;;;-2.68;100.00
23643;BME280;11998;55.788;37.572;2023-02-12T04:47:54;98369.56;;;-2.69;100.00
23643;BME280;11998;55.788;37.572;2023-02-12T04:48:57;98395.50;;;-2.68;100.00
23643;BME280;11998;55.788;37.572;2023-02-12T04:49:58;98392.97;;;-2.61;100.00
23643;BME280;11998;55.788;37.572;2023-02-12T04:50:59;98354.91;;;-2.67;100.00
23643;BME280;11998;55.788;37.572;2023-02-12T04:51:59;98378.19;;;-2.69;100.00
23643;BME280;11998;55.788;37.572;2023-02-12T04:53:00;98352.28;;;-2.69;100.00
23643;BME280;11998;55.788;37.572;2023-02-12T04:54:00;98370.47;;;-2.66;100.00
23643;BME280;11998;55.788;37.572;2023-02-12T04:55:01;98360.97;;;-2.63;100.00
23643;BME280;11998;55.788;37.572;2023-02-12T04:56:01;98347.13;;;-2.69;100.00
23643;BME280;11998;55.788;37.572;2023-02-12T04:57:02;98381.56;;;-2.76;100.00
23643;BME280;11998;55.788;37.572;2023-02-12T04:58:03;98411.88;;;-2.70;100.00
23643;BME280;11998;55.788;37.572;2023-02-12T04:59:04;98421.41;;;-2.66;100.00
23643;BME280;11998;55.788;37.572;2023-02-12T05:00:06;98428.34;;;-2.63;100.00
23643;BME280;11998;55.788;37.572;2023-02-12T05:01:07;98437.09;;;-2.58;100.00
23643;BME280;11998;55.788;37.572;2023-02-12T05:02:09;98443.19;;;-2.53;100.00
23643;BME280;11998;55.788;37.572;2023-02-12T05:03:09;98445.81;;;-2.49;100.00
23643;BME280;11998;55.788;37.572;2023-02-12T05:04:12;98442.44;;;-2.45;100.00
23643;BME280;11998;55.788;37.572;2023-02-12T05:05:13;98438.91;;;-2.48;100.00
23643;BME280;11998;55.788;37.572;2023-02-12T05:06:14;98447.50;;;-2.52;100.00
23643;BME280;11998;55.788;37.572;2023-02-12T05:07:14;98437.13;;;-2.55;100.00
23643;BME280;11998;55.788;37.572;2023-02-12T05:08:15;98449.34;;;-2.45;100.00
23643;BME280;11998;55.788;37.572;2023-02-12T05:09:18;98446.78;;;-2.42;100.00
23643;BME280;11998;55.788;37.572;2023-02-12T05:10:19;98441.63;;;-2.39;100.00
23643;BME280;11998;55.788;37.572;2023-02-12T05:11:19;98413.09;;;-2.42;100.00
23643;BME280;11998;55.788;37.572;2023-02-12T05:12:20;98449.28;;;-2.50;100.00
23643;BME280;11998;55.788;37.572;2023-02-12T05:13:21;98442.47;;;-2.43;100.00
23643;BME280;11998;55.788;37.572;2023-02-12T05:14:23;98441.56;;;-2.47;100.00
23643;BME280;11998;55.788;37.572;2023-02-12T05:15:24;98458.00;;;-2.45;100.00
23643;BME280;11998;55.788;37.572;2023-02-12T05:16:25;98468.34;;;-2.46;100.00
23643;BME280;11998;55.788;37.572;2023-02-12T05:17:25;98458.06;;;-2.37;100.00
23643;BME280;11998;55.788;37.572;2023-02-12T05:18:26;98465.00;;;-2.36;100.00
23643;BME280;11998;55.788;37.572;2023-02-12T05:19:26;98450.28;;;-2.39;100.00
23643;BME280;11998;55.788;37.572;2023-02-12T05:20:27;98470.84;;;-2.52;100.00
23643;BME280;11998;55.788;37.572;2023-02-12T05:21:28;98475.13;;;-2.54;100.00
23643;BME280;11998;55.788;37.572;2023-02-12T05:22:28;98457.88;;;-2.52;100.00
23643;BME280;11998;55.788;37.572;2023-02-12T05:23:32;98475.19;;;-2.48;100.00
23643;BME280;11998;55.788;37.572;2023-02-12T05:24:32;98479.56;;;-2.47;100.00
23643;BME280;11998;55.788;37.572;2023-02-12T05:25:33;98507.84;;;-2.62;100.00
23643;BME280;11998;55.788;37.572;2023-02-12T05:26:34;98476.91;;;-2.50;100.00
23643;BME280;11998;55.788;37.572;2023-02-12T05:27:35;98493.25;;;-2.56;100.00
23643;BME280;11998;55.788;37.572;2023-02-12T05:28:35;98484.66;;;-2.53;100.00
23643;BME280;11998;55.788;37.572;2023-02-12T05:29:36;98492.47;;;-2.50;100.00
23643;BME280;11998;55.788;37.572;2023-02-12T05:30:36;98504.56;;;-2.49;100.00
23643;BME280;11998;55.788;37.572;2023-02-12T05:31:37;98468.06;;;-2.64;100.00
23643;BME280;11998;55.788;37.572;2023-02-12T05:32:37;98519.91;;;-2.64;100.00
23643;BME280;11998;55.788;37.572;2023-02-12T05:33:41;98482.88;;;-2.59;100.00
23643;BME280;11998;55.788;37.572;2023-02-12T05:34:41;98502.75;;;-2.56;100.00
23643;BME280;11998;55.788;37.572;2023-02-12T05:35:42;98513.03;;;-2.62;100.00
23643;BME280;11998;55.788;37.572;2023-02-12T05:36:42;98517.44;;;-2.58;100.00
23643;BME280;11998;55.788;37.572;2023-02-12T05:37:43;98488.84;;;-2.61;100.00
23643;BME280;11998;55.788;37.572;2023-02-12T05:38:43;98518.22;;;-2.62;100.00
23643;BME280;11998;55.788;37.572;2023-02-12T05:39:44;98535.63;;;-2.52;100.00
23643;BME280;11998;55.788;37.572;2023-02-12T05:40:44;98520.06;;;-2.55;100.00
23643;BME280;11998;55.788;37.572;2023-02-12T05:41:45;98517.47;;;-2.54;100.00
23643;BME280;11998;55.788;37.572;2023-02-12T05:42:45;98538.22;;;-2.54;100.00
23643;BME280;11998;55.788;37.572;2023-02-12T05:43:46;98504.47;;;-2.58;100.00
23643;BME280;11998;55.788;37.572;2023-02-12T05:44:47;98527.59;;;-2.72;100.00
23643;BME280;11998;55.788;37.572;2023-02-12T05:45:47;98531.09;;;-2.69;100.00
23643;BME280;11998;55.788;37.572;2023-02-12T05:46:48;98528.56;;;-2.62;100.00
23643;BME280;11998;55.788;37.572;2023-02-12T05:47:48;98536.28;;;-2.69;100.00
23643;BME280;11998;55.788;37.572;2023-02-12T05:48:49;98528.53;;;-2.66;100.00
23643;BME280;11998;55.788;37.572;2023-02-12T05:49:49;98548.34;;;-2.71;100.00
23643;BME280;11998;55.788;37.572;2023-02-12T05:50:50;98528.34;;;-2.78;100.00
23643;BME280;11998;55.788;37.572;2023-02-12T05:51:51;98533.63;;;-2.72;100.00
23643;BME280;11998;55.788;37.572;2023-02-12T05:52:51;98524.06;;;-2.76;100.00
23643;BME280;11998;55.788;37.572;2023-02-12T05:53:56;98548.31;;;-2.72;100.00
23643;BME280;11998;55.788;37.572;2023-02-12T05:54:59;98521.56;;;-2.70;100.00
23643;BME280;11998;55.788;37.572;2023-02-12T05:56:36;98511.06;;;-2.79;100.00
23643;BME280;11998;55.788;37.572;2023-02-12T05:57:37;98556.03;;;-2.74;100.00
23643;BME280;11998;55.788;37.572;2023-02-12T05:58:38;98544.81;;;-2.74;100.00
23643;BME280;11998;55.788;37.572;2023-02-12T05:59:39;98558.72;;;-2.69;100.00
23643;BME280;11998;55.788;37.572;2023-02-12T06:00:40;98558.56;;;-2.78;100.00
23643;BME280;11998;55.788;37.572;2023-02-12T06:01:42;98542.13;;;-2.82;100.00
23643;BME280;11998;55.788;37.572;2023-02-12T06:02:42;98522.94;;;-2.93;100.00
23643;BME280;11998;55.788;37.572;2023-02-12T06:03:43;98571.25;;;-2.95;100.00
23643;BME280;11998;55.788;37.572;2023-02-12T06:04:43;98549.00;;;-2.84;100.00
23643;BME280;11998;55.788;37.572;2023-02-12T06:05:49;98574.16;;;-2.75;100.00
23643;BME280;11998;55.788;37.572;2023-02-12T06:06:54;98555.16;;;-2.74;100.00
23643;BME280;11998;55.788;37.572;2023-02-12T06:07:55;98572.38;;;-2.79;100.00
23643;BME280;11998;55.788;37.572;2023-02-12T06:08:56;98574.13;;;-2.77;100.00
23643;BME280;11998;55.788;37.572;2023-02-12T06:09:56;98578.53;;;-2.73;100.00
23643;BME280;11998;55.788;37.572;2023-02-12T06:11:00;98556.16;;;-2.68;100.00
23643;BME280;11998;55.788;37.572;2023-02-12T06:12:02;98562.88;;;-2.79;100.00
23643;BME280;11998;55.788;37.572;2023-02-12T06:13:02;98578.59;;;-2.70;100.00
23643;BME280;11998;55.788;37.572;2023-02-12T06:14:04;98590.84;;;-2.59;100.00